createdAt,value
2018-01-27T00:01:04.675Z,5.32
2018-01-27T00:03:40.844Z,5.35
2018-01-27T00:06:22.222Z,5.25
2018-01-27T00:08:54.922Z,5.31
2018-01-27T00:11:26.253Z,5.29
2018-01-27T00:14:04.413Z,5.30
2018-01-27T00:19:19.158Z,5.21
2018-01-27T00:21:48.971Z,5.23
2018-01-27T00:24:28.718Z,5.16
2018-01-27T00:27:17.660Z,5.19
2018-01-27T00:35:05.067Z,5.20
2018-01-27T00:37:40.118Z,5.13
2018-01-27T00:40:15.750Z,4.94
2018-01-27T00:43:05.396Z,5.16
2018-01-27T00:51:15.788Z,5.10
2018-01-27T00:53:52.395Z,5.07
2018-01-27T00:56:31.070Z,5.05
2018-01-27T01:05:21.817Z,5.05
2018-01-27T01:08:00.681Z,5.01
2018-01-27T01:10:29.987Z,5.03
2018-01-27T01:13:01.946Z,5.01
2018-01-27T01:15:36.872Z,4.98
2018-01-27T01:18:13.751Z,4.97
2018-01-27T01:20:48.376Z,4.99
2018-01-27T01:26:07.837Z,4.91
2018-01-27T01:28:36.346Z,4.92
2018-01-27T01:31:34.524Z,4.97
2018-01-27T01:34:08.029Z,4.99
2018-01-27T02:02:41.601Z,4.92
2018-01-27T02:08:24.631Z,4.89
2018-01-27T02:14:18.358Z,4.87
2018-01-27T02:19:45.061Z,4.79
2018-01-27T02:22:22.752Z,4.80
2018-01-27T02:27:50.003Z,4.82
2018-01-27T02:30:39.353Z,4.78
2018-01-27T02:33:19.423Z,4.74
2018-01-27T02:35:58.962Z,4.75
2018-01-27T02:50:47.498Z,4.34
2018-01-27T02:53:21.513Z,4.65
2018-01-27T03:01:22.406Z,4.67
2018-01-27T03:13:23.516Z,4.55
2018-01-27T03:19:33.290Z,4.52
2018-01-27T03:22:05.969Z,4.54
2018-01-27T03:24:45.104Z,4.50
2018-01-27T03:27:23.976Z,4.47
2018-01-27T03:30:02.539Z,4.43
2018-01-27T03:32:48.837Z,4.37
2018-01-27T03:35:54.029Z,4.40
2018-01-27T03:38:40.181Z,4.37
2018-01-27T03:41:21.196Z,4.36
2018-01-27T03:44:03.177Z,4.31
2018-01-27T03:46:36.422Z,4.33
2018-01-27T03:52:10.063Z,4.28
2018-01-27T03:54:43.020Z,4.27
2018-01-27T04:00:01.631Z,4.22
2018-01-27T04:02:38.343Z,4.18
2018-01-27T04:05:16.445Z,4.18
2018-01-27T04:07:47.842Z,4.18
2018-01-27T04:10:22.176Z,4.16
2018-01-27T04:12:58.904Z,4.12
2018-01-27T04:15:43.259Z,4.11
2018-01-27T04:21:04.388Z,4.09
2018-01-27T04:23:38.394Z,4.10
2018-01-27T04:26:25.105Z,4.13
2018-01-27T04:35:15.794Z,4.00
2018-01-27T04:37:53.562Z,3.78
2018-01-27T04:52:43.191Z,3.99
2018-01-27T04:58:47.825Z,3.90
2018-01-27T05:01:33.524Z,3.96
2018-01-27T05:04:20.219Z,3.83
2018-01-27T05:06:57.922Z,3.95
2018-01-27T05:09:40.767Z,3.95
2018-01-27T05:12:13.875Z,3.92
2018-01-27T05:14:53.629Z,3.88
2018-01-27T05:17:32.951Z,3.91
2018-01-27T05:20:08.766Z,3.89
2018-01-27T05:22:53.670Z,3.90
2018-01-27T05:25:33.893Z,3.84
2018-01-27T05:28:17.951Z,3.84
2018-01-27T05:30:46.499Z,3.86
2018-01-27T05:33:14.702Z,3.84
2018-01-27T05:35:42.453Z,3.78
2018-01-27T05:38:10.540Z,3.77
2018-01-27T05:40:38.307Z,3.79
2018-01-27T05:43:06.096Z,3.81
2018-01-27T05:45:33.746Z,3.79
2018-01-27T05:48:02.496Z,3.79
2018-01-27T05:50:30.153Z,3.79
2018-01-27T05:52:59.044Z,3.82
2018-01-27T05:55:26.855Z,3.83
2018-01-27T05:57:55.757Z,3.89
2018-01-27T06:00:23.426Z,3.90
2018-01-27T06:02:51.178Z,4.04
2018-01-27T06:05:19.366Z,4.13
2018-01-27T06:07:47.849Z,4.23
2018-01-27T06:10:15.748Z,4.39
2018-01-27T06:12:47.354Z,4.55
2018-01-27T06:15:16.805Z,4.70
2018-01-27T06:17:45.245Z,4.81
2018-01-27T06:20:13.453Z,4.97
2018-01-27T06:22:42.517Z,5.12
2018-01-27T06:25:11.071Z,5.34
2018-01-27T06:27:39.004Z,5.66
2018-01-27T06:30:08.492Z,5.80
2018-01-27T06:32:38.176Z,5.90
2018-01-27T06:35:07.289Z,6.32
2018-01-27T06:37:35.159Z,6.69
2018-01-27T06:40:03.721Z,6.99
2018-01-27T06:42:33.404Z,7.28
2018-01-27T06:45:05.804Z,7.51
2018-01-27T06:47:34.597Z,7.83
2018-01-27T06:50:03.016Z,8.18
2018-01-27T06:52:31.713Z,8.46
2018-01-27T06:54:59.465Z,9.01
2018-01-27T06:57:27.001Z,9.40
2018-01-27T06:59:54.716Z,9.72
2018-01-27T07:02:22.646Z,10.07
2018-01-27T07:04:50.181Z,10.49
2018-01-27T07:07:18.076Z,10.83
2018-01-27T07:09:45.636Z,11.29
2018-01-27T07:12:13.428Z,11.65
2018-01-27T07:14:40.958Z,12.26
2018-01-27T07:17:08.718Z,12.74
2018-01-27T07:19:36.364Z,13.32
2018-01-27T07:22:04.307Z,13.72
2018-01-27T07:24:31.824Z,14.16
2018-01-27T07:26:59.370Z,14.39
2018-01-27T07:29:26.959Z,14.87
2018-01-27T07:31:55.434Z,15.07
2018-01-27T07:34:26.884Z,15.58
2018-01-27T07:36:55.524Z,16.16
2018-01-27T07:39:24.862Z,16.52
2018-01-27T07:41:52.573Z,16.25
2018-01-27T07:44:21.096Z,16.36
2018-01-27T07:46:50.076Z,16.22
2018-01-27T07:49:21.565Z,15.85
2018-01-27T07:51:49.196Z,15.43
2018-01-27T07:54:16.844Z,15.19
2018-01-27T07:56:44.621Z,15.03
2018-01-27T07:59:12.368Z,14.88
2018-01-27T08:01:39.909Z,14.88
2018-01-27T08:04:07.692Z,14.89
2018-01-27T08:06:35.368Z,15.00
2018-01-27T08:09:02.945Z,15.08
2018-01-27T08:11:30.673Z,15.12
2018-01-27T08:13:58.189Z,15.25
2018-01-27T08:16:25.733Z,15.52
2018-01-27T08:18:53.426Z,15.58
2018-01-27T08:21:21.071Z,15.73
2018-01-27T08:23:49.374Z,15.92
2018-01-27T08:26:16.926Z,16.06
2018-01-27T08:28:44.481Z,16.28
2018-01-27T08:31:12.016Z,16.57
2018-01-27T08:33:39.596Z,16.63
2018-01-27T08:36:07.293Z,16.84
2018-01-27T08:38:34.826Z,17.01
2018-01-27T08:41:02.451Z,17.20
2018-01-27T08:43:30.031Z,17.35
2018-01-27T08:45:57.849Z,17.52
2018-01-27T08:48:26.345Z,17.43
2018-01-27T08:50:53.908Z,17.66
2018-01-27T08:53:21.591Z,17.81
2018-01-27T08:55:49.160Z,18.01
2018-01-27T08:58:16.707Z,18.23
2018-01-27T09:00:45.112Z,18.38
2018-01-27T09:03:13.583Z,18.54
2018-01-27T09:05:41.159Z,18.65
2018-01-27T09:08:08.809Z,18.67
2018-01-27T09:10:36.718Z,18.78
2018-01-27T09:13:04.385Z,19.02
2018-01-27T09:15:32.231Z,19.13
2018-01-27T09:18:00.192Z,19.18
2018-01-27T09:20:28.340Z,19.47
2018-01-27T09:22:55.876Z,19.70
2018-01-27T09:25:23.642Z,19.76
2018-01-27T09:27:51.730Z,19.73
2018-01-27T09:30:19.437Z,19.96
2018-01-27T09:32:47.026Z,20.03
2018-01-27T09:35:14.619Z,19.95
2018-01-27T09:37:44.923Z,20.08
2018-01-27T09:40:12.560Z,20.07
2018-01-27T09:42:40.364Z,20.21
2018-01-27T09:45:08.004Z,20.32
2018-01-27T09:47:35.604Z,20.25
2018-01-27T09:50:03.234Z,20.21
2018-01-27T09:52:30.761Z,20.22
2018-01-27T09:54:58.460Z,20.31
2018-01-27T09:57:26.119Z,20.48
2018-01-27T09:59:53.697Z,20.49
2018-01-27T10:02:21.341Z,20.48
2018-01-27T10:04:48.927Z,20.53
2018-01-27T10:07:16.608Z,20.66
2018-01-27T10:09:45.161Z,20.63
2018-01-27T10:12:12.769Z,20.70
2018-01-27T10:14:40.371Z,20.66
2018-01-27T10:17:07.942Z,20.66
2018-01-27T10:19:35.639Z,20.73
2018-01-27T10:22:03.196Z,20.81
2018-01-27T10:24:30.736Z,20.79
2018-01-27T10:26:58.261Z,20.87
2018-01-27T10:29:25.916Z,20.80
2018-01-27T10:31:53.456Z,20.86
2018-01-27T10:34:21.041Z,20.87
2018-01-27T10:36:48.718Z,20.83
2018-01-27T10:39:16.235Z,20.63
2018-01-27T10:41:43.784Z,20.70
2018-01-27T10:44:11.336Z,20.77
2018-01-27T10:46:39.219Z,20.74
2018-01-27T10:49:06.923Z,20.65
2018-01-27T10:51:34.479Z,20.79
2018-01-27T10:54:02.074Z,20.63
2018-01-27T10:56:29.976Z,20.56
2018-01-27T10:58:57.533Z,20.66
2018-01-27T11:01:25.087Z,20.74
2018-01-27T11:03:52.610Z,20.78
2018-01-27T11:06:20.329Z,20.68
2018-01-27T11:08:47.860Z,20.63
2018-01-27T11:11:15.393Z,20.52
2018-01-27T11:13:42.940Z,20.43
2018-01-27T11:16:10.797Z,20.39
2018-01-27T11:18:38.465Z,20.36
2018-01-27T11:21:05.985Z,20.24
2018-01-27T11:23:33.505Z,20.11
2018-01-27T11:26:01.032Z,19.99
2018-01-27T11:28:28.562Z,20.14
2018-01-27T11:30:56.246Z,20.24
2018-01-27T11:33:23.780Z,20.16
2018-01-27T11:35:51.318Z,20.15
2018-01-27T11:38:18.860Z,19.99
2018-01-27T11:40:46.376Z,19.79
2018-01-27T11:43:15.012Z,19.84
2018-01-27T11:45:43.071Z,19.89
2018-01-27T11:48:10.735Z,19.87
2018-01-27T11:50:38.318Z,19.79
2018-01-27T11:53:06.007Z,19.73
2018-01-27T11:55:33.720Z,19.66
2018-01-27T11:58:01.613Z,19.63
2018-01-27T12:00:29.312Z,19.52
2018-01-27T12:02:56.897Z,19.52
2018-01-27T12:05:24.457Z,19.50
2018-01-27T12:07:52.004Z,19.46
2018-01-27T12:10:19.553Z,19.47
2018-01-27T12:12:47.232Z,19.37
2018-01-27T12:15:15.024Z,19.35
2018-01-27T12:17:42.556Z,19.29
2018-01-27T12:20:10.118Z,19.32
2018-01-27T12:22:37.649Z,19.21
2018-01-27T12:25:05.335Z,19.14
2018-01-27T12:27:32.877Z,19.13
2018-01-27T12:30:00.432Z,19.07
2018-01-27T12:32:27.988Z,18.96
2018-01-27T12:34:55.583Z,18.87
2018-01-27T12:37:23.245Z,18.91
2018-01-27T12:39:51.038Z,18.78
2018-01-27T12:42:18.576Z,18.73
2018-01-27T12:44:46.214Z,18.63
2018-01-27T12:47:13.781Z,18.36
2018-01-27T12:49:41.472Z,18.43
2018-01-27T12:52:09.191Z,18.26
2018-01-27T12:54:36.749Z,18.12
2018-01-27T12:57:05.500Z,18.09
2018-01-27T12:59:33.026Z,17.89
2018-01-27T13:02:00.584Z,17.78
2018-01-27T13:04:29.048Z,17.53
2018-01-27T13:06:56.713Z,17.40
2018-01-27T13:09:24.282Z,17.28
2018-01-27T13:11:52.222Z,17.16
2018-01-27T13:14:19.741Z,16.95
2018-01-27T13:16:47.252Z,16.58
2018-01-27T13:19:14.917Z,16.58
2018-01-27T13:21:42.445Z,16.68
2018-01-27T13:24:09.963Z,16.54
2018-01-27T13:26:37.493Z,16.30
2018-01-27T13:29:06.018Z,16.17
2018-01-27T13:31:33.575Z,16.26
2018-01-27T13:34:01.110Z,16.18
2018-01-27T13:36:28.817Z,16.06
2018-01-27T13:38:56.380Z,15.84
2018-01-27T13:41:24.604Z,15.65
2018-01-27T13:43:52.137Z,15.50
2018-01-27T13:46:19.675Z,15.21
2018-01-27T13:48:47.336Z,15.12
2018-01-27T13:51:14.891Z,14.73
2018-01-27T13:53:42.410Z,14.76
2018-01-27T13:56:10.165Z,14.37
2018-01-27T13:58:37.706Z,14.40
2018-01-27T14:01:05.371Z,13.85
2018-01-27T14:03:32.921Z,13.65
2018-01-27T14:06:00.465Z,13.33
2018-01-27T14:08:28.232Z,13.28
2018-01-27T14:10:56.088Z,13.53
2018-01-27T14:13:23.780Z,14.77
2018-01-27T14:15:51.296Z,14.40
2018-01-27T14:18:18.846Z,13.99
2018-01-27T14:20:46.478Z,13.73
2018-01-27T14:23:14.014Z,13.51
2018-01-27T14:25:41.670Z,13.38
2018-01-27T14:28:09.208Z,13.28
2018-01-27T14:30:36.995Z,13.07
2018-01-27T14:33:04.535Z,13.01
2018-01-27T14:35:32.098Z,12.88
2018-01-27T14:37:59.637Z,12.77
2018-01-27T14:40:27.163Z,12.67
2018-01-27T14:42:54.839Z,12.50
2018-01-27T14:45:22.384Z,12.36
2018-01-27T14:47:49.909Z,12.18
2018-01-27T14:50:17.442Z,13.65
2018-01-27T14:52:45.090Z,14.55
2018-01-27T14:55:12.782Z,15.16
2018-01-27T14:57:40.327Z,15.37
2018-01-27T18:30:51.280Z,10.62
2018-01-27T18:33:18.917Z,9.52
2018-01-27T18:35:46.963Z,8.76
2018-01-27T18:38:14.651Z,8.08
2018-01-27T18:40:43.474Z,7.53
2018-01-27T18:43:11.009Z,7.27
2018-01-27T18:45:38.592Z,6.87
2018-01-27T18:48:06.999Z,6.71
2018-01-27T18:50:34.900Z,6.44
2018-01-27T18:53:03.484Z,6.25
2018-01-27T18:55:31.118Z,6.07
2018-01-27T18:57:58.700Z,5.91
2018-01-27T19:00:26.383Z,5.79
2018-01-27T19:02:54.025Z,5.68
2018-01-27T19:05:22.512Z,5.61
2018-01-27T19:07:50.318Z,5.51
2018-01-27T19:10:17.914Z,5.49
2018-01-27T19:12:46.192Z,5.44
2018-01-27T19:15:14.021Z,5.32
2018-01-27T19:17:41.994Z,5.34
2018-01-27T19:20:09.678Z,5.26
2018-01-27T19:22:37.496Z,5.23
2018-01-27T19:25:08.337Z,5.20
2018-01-27T19:27:36.114Z,5.15
2018-01-27T19:30:07.506Z,5.09
2018-01-27T19:32:35.373Z,5.02
2018-01-27T19:35:03.303Z,4.99
2018-01-27T19:37:31.074Z,4.95
2018-01-27T19:39:58.592Z,4.77
2018-01-27T19:42:27.314Z,4.89
2018-01-27T19:44:55.098Z,4.85
2018-01-27T19:47:22.886Z,4.76
2018-01-27T19:49:50.412Z,4.85
2018-01-27T19:52:18.512Z,4.78
2018-01-27T19:54:46.968Z,4.77
2018-01-27T19:57:14.589Z,4.73
2018-01-27T19:59:42.390Z,4.70
2018-01-27T20:02:09.952Z,4.67
2018-01-27T20:04:37.582Z,4.66
2018-01-27T20:07:06.239Z,4.68
2018-01-27T20:09:33.878Z,4.66
2018-01-27T20:12:01.426Z,4.65
2018-01-27T20:14:29.010Z,4.61
2018-01-27T20:16:56.605Z,4.61
2018-01-27T20:19:24.274Z,4.57
2018-01-27T20:21:52.105Z,4.58
2018-01-27T20:24:19.686Z,4.54
2018-01-27T20:26:47.537Z,4.53
2018-01-27T20:29:15.353Z,4.50
2018-01-27T20:31:43.118Z,4.47
2018-01-27T20:34:11.504Z,4.48
2018-01-27T20:36:39.192Z,4.44
2018-01-27T20:39:06.824Z,4.34
2018-01-27T20:41:34.435Z,4.43
2018-01-27T20:44:02.057Z,4.39
2018-01-27T20:46:29.623Z,4.38
2018-01-27T20:48:57.335Z,4.68
2018-01-27T20:51:25.729Z,4.65
2018-01-27T20:53:53.540Z,4.61
2018-01-27T20:56:21.358Z,4.54
2018-01-27T20:58:49.073Z,4.47
2018-01-27T21:01:16.899Z,4.44
2018-01-27T21:03:44.661Z,4.38
2018-01-27T21:06:12.349Z,4.40
2018-01-27T21:08:39.880Z,4.42
2018-01-27T21:11:07.452Z,4.34
2018-01-27T21:13:35.152Z,4.30
2018-01-27T21:16:02.776Z,4.19
2018-01-27T21:18:30.681Z,4.27
2018-01-27T21:20:58.365Z,4.22
2018-01-27T21:23:26.901Z,4.18
2018-01-27T21:25:55.884Z,4.23
2018-01-27T21:30:07.642Z,4.13
2018-01-27T21:32:36.834Z,4.02
2018-01-27T21:35:04.645Z,4.02
2018-01-27T21:37:32.440Z,4.01
2018-01-27T21:40:02.728Z,3.98
2018-01-27T21:42:30.404Z,4.10
2018-01-27T21:44:59.729Z,4.09
2018-01-27T21:47:28.448Z,4.07
2018-01-27T21:49:56.005Z,4.04
2018-01-27T21:52:24.152Z,3.96
2018-01-27T21:54:52.329Z,3.98
2018-01-27T21:57:21.137Z,3.96
2018-01-27T21:59:48.678Z,3.92
2018-01-27T22:02:16.459Z,3.89
2018-01-27T22:04:44.113Z,3.84
2018-01-27T22:07:11.874Z,3.82
2018-01-27T22:09:39.706Z,3.80
2018-01-27T22:12:07.545Z,3.78
2018-01-27T22:14:35.118Z,3.79
2018-01-27T22:17:03.036Z,3.76
2018-01-27T22:19:30.736Z,3.84
2018-01-27T22:21:58.325Z,3.80
2018-01-27T22:24:25.912Z,3.76
2018-01-27T22:26:53.485Z,3.81
2018-01-27T22:29:21.936Z,3.81
2018-01-27T22:31:49.510Z,3.75
2018-01-27T22:34:17.108Z,3.76
2018-01-27T22:36:44.794Z,3.61
2018-01-27T22:39:12.573Z,3.71
2018-01-27T22:41:40.382Z,3.73
2018-01-27T22:44:08.158Z,3.76
2018-01-27T22:46:36.761Z,3.77
2018-01-27T22:49:04.425Z,3.73
2018-01-27T22:51:32.085Z,3.76
2018-01-27T22:54:00.909Z,3.72
2018-01-27T22:56:29.432Z,3.64
2018-01-27T22:58:58.619Z,3.58
2018-01-27T23:04:03.394Z,3.53
2018-01-27T23:09:27.808Z,3.44
2018-01-27T23:11:56.725Z,3.41
2018-01-27T23:14:29.589Z,3.38
2018-01-27T23:17:04.660Z,3.38
2018-01-27T23:19:37.217Z,3.38
2018-01-27T23:22:15.390Z,3.22
2018-01-27T23:24:48.443Z,3.30
2018-01-27T23:27:30.383Z,3.23
2018-01-27T23:30:09.810Z,3.20
2018-01-27T23:32:39.195Z,3.15
2018-01-27T23:35:07.116Z,3.15
2018-01-27T23:37:52.471Z,3.20
2018-01-27T23:40:20.486Z,3.14
2018-01-27T23:42:48.119Z,3.07
2018-01-27T23:45:17.145Z,3.03
2018-01-27T23:47:51.087Z,2.98
2018-01-27T23:50:19.541Z,2.96
2018-01-27T23:52:48.925Z,2.94
2018-01-27T23:55:37.869Z,2.93
2018-01-27T23:58:15.136Z,2.90
